sensor_id;sensor_type;location;lat;lon;timestamp;P1;durP1;ratioP1;P2;durP2;ratioP2
67712;SDS011;67640;55.784;49.138;2023-05-10T00:01:23;14.83;;;4.90;;
67712;SDS011;67640;55.784;49.138;2023-05-10T00:06:28;18.80;;;5.60;;
67712;SDS011;67640;55.784;49.138;2023-05-10T00:11:33;14.55;;;4.72;;
67712;SDS011;67640;55.784;49.138;2023-05-10T00:16:39;14.00;;;5.03;;
67712;SDS011;67640;55.784;49.138;2023-05-10T00:21:44;16.80;;;5.42;;
67712;SDS011;67640;55.784;49.138;2023-05-10T00:27:03;12.50;;;5.03;;
67712;SDS011;67640;55.784;49.138;2023-05-10T00:32:08;10.82;;;5.03;;
67712;SDS011;67640;55.784;49.138;2023-05-10T00:37:13;15.55;;;5.78;;
67712;SDS011;67640;55.784;49.138;2023-05-10T00:42:18;12.00;;;4.77;;
67712;SDS011;67640;55.784;49.138;2023-05-10T00:47:23;12.85;;;4.90;;
67712;SDS011;67640;55.784;49.138;2023-05-10T00:52:28;12.83;;;5.27;;
67712;SDS011;67640;55.784;49.138;2023-05-10T00:57:48;14.95;;;5.12;;
67712;SDS011;67640;55.784;49.138;2023-05-10T01:02:53;13.03;;;4.62;;
67712;SDS011;67640;55.784;49.138;2023-05-10T01:07:59;16.47;;;5.10;;
67712;SDS011;67640;55.784;49.138;2023-05-10T01:13:04;17.55;;;5.08;;
67712;SDS011;67640;55.784;49.138;2023-05-10T01:18:09;14.13;;;5.00;;
67712;SDS011;67640;55.784;49.138;2023-05-10T01:34:40;14.33;;;3.67;;
67712;SDS011;67640;55.784;49.138;2023-05-10T01:45:24;9.98;;;3.72;;
67712;SDS011;67640;55.784;49.138;2023-05-10T01:50:29;8.10;;;3.22;;
67712;SDS011;67640;55.784;49.138;2023-05-10T01:55:39;14.53;;;3.03;;
67712;SDS011;67640;55.784;49.138;2023-05-10T02:00:56;11.70;;;3.10;;
67712;SDS011;67640;55.784;49.138;2023-05-10T02:06:18;7.47;;;3.27;;
67712;SDS011;67640;55.784;49.138;2023-05-10T02:11:37;10.95;;;3.30;;
67712;SDS011;67640;55.784;49.138;2023-05-10T02:16:43;8.65;;;3.55;;
67712;SDS011;67640;55.784;49.138;2023-05-10T02:21:49;8.73;;;3.20;;
67712;SDS011;67640;55.784;49.138;2023-05-10T02:26:55;11.60;;;2.95;;
67712;SDS011;67640;55.784;49.138;2023-05-10T02:32:00;7.17;;;2.63;;
67712;SDS011;67640;55.784;49.138;2023-05-10T02:37:33;7.27;;;2.93;;
67712;SDS011;67640;55.784;49.138;2023-05-10T02:42:39;10.55;;;2.83;;
67712;SDS011;67640;55.784;49.138;2023-05-10T02:47:47;5.70;;;2.40;;
67712;SDS011;67640;55.784;49.138;2023-05-10T02:53:09;8.18;;;2.67;;
67712;SDS011;67640;55.784;49.138;2023-05-10T02:58:27;5.20;;;2.20;;
67712;SDS011;67640;55.784;49.138;2023-05-10T03:03:46;9.00;;;2.20;;
67712;SDS011;67640;55.784;49.138;2023-05-10T03:08:51;9.25;;;3.30;;
67712;SDS011;67640;55.784;49.138;2023-05-10T03:13:59;12.65;;;5.00;;
67712;SDS011;67640;55.784;49.138;2023-05-10T03:19:20;15.10;;;4.23;;
67712;SDS011;67640;55.784;49.138;2023-05-10T03:24:24;11.38;;;4.40;;
67712;SDS011;67640;55.784;49.138;2023-05-10T03:29:31;6.15;;;2.83;;
67712;SDS011;67640;55.784;49.138;2023-05-10T03:34:50;8.60;;;2.57;;
67712;SDS011;67640;55.784;49.138;2023-05-10T03:40:10;9.38;;;2.77;;
67712;SDS011;67640;55.784;49.138;2023-05-10T03:45:29;8.03;;;2.73;;
67712;SDS011;67640;55.784;49.138;2023-05-10T03:50:34;8.80;;;2.47;;
67712;SDS011;67640;55.784;49.138;2023-05-10T03:55:39;6.95;;;2.40;;
67712;SDS011;67640;55.784;49.138;2023-05-10T04:00:45;9.93;;;3.17;;
67712;SDS011;67640;55.784;49.138;2023-05-10T04:05:57;12.43;;;3.75;;
67712;SDS011;67640;55.784;49.138;2023-05-10T04:11:11;10.15;;;3.60;;
67712;SDS011;67640;55.784;49.138;2023-05-10T04:16:17;12.20;;;4.00;;
67712;SDS011;67640;55.784;49.138;2023-05-10T04:21:22;10.28;;;2.80;;
67712;SDS011;67640;55.784;49.138;2023-05-10T04:26:42;10.65;;;2.85;;
67712;SDS011;67640;55.784;49.138;2023-05-10T04:32:01;8.50;;;2.57;;
67712;SDS011;67640;55.784;49.138;2023-05-10T04:37:20;8.53;;;2.60;;
67712;SDS011;67640;55.784;49.138;2023-05-10T04:42:25;6.70;;;2.10;;
67712;SDS011;67640;55.784;49.138;2023-05-10T04:47:31;6.03;;;2.15;;
67712;SDS011;67640;55.784;49.138;2023-05-10T04:52:37;7.87;;;2.35;;
67712;SDS011;67640;55.784;49.138;2023-05-10T04:57:43;6.60;;;2.10;;
67712;SDS011;67640;55.784;49.138;2023-05-10T05:03:14;8.05;;;2.40;;
67712;SDS011;67640;55.784;49.138;2023-05-10T05:08:19;5.95;;;2.22;;
67712;SDS011;67640;55.784;49.138;2023-05-10T05:13:25;7.73;;;3.20;;
67712;SDS011;67640;55.784;49.138;2023-05-10T05:18:44;11.40;;;2.05;;
67712;SDS011;67640;55.784;49.138;2023-05-10T05:24:04;4.70;;;1.50;;
67712;SDS011;67640;55.784;49.138;2023-05-10T05:29:23;11.35;;;1.75;;
67712;SDS011;67640;55.784;49.138;2023-05-10T05:34:28;7.05;;;1.10;;
67712;SDS011;67640;55.784;49.138;2023-05-10T05:39:35;5.07;;;1.30;;
67712;SDS011;67640;55.784;49.138;2023-05-10T05:44:40;4.80;;;1.42;;
67712;SDS011;67640;55.784;49.138;2023-05-10T05:49:46;6.60;;;1.43;;
67712;SDS011;67640;55.784;49.138;2023-05-10T05:55:01;2.52;;;0.68;;
67712;SDS011;67640;55.784;49.138;2023-05-10T06:00:21;11.15;;;0.90;;
67712;SDS011;67640;55.784;49.138;2023-05-10T06:05:41;5.40;;;1.07;;
67712;SDS011;67640;55.784;49.138;2023-05-10T06:10:46;8.70;;;1.00;;
67712;SDS011;67640;55.784;49.138;2023-05-10T06:15:52;2.87;;;0.80;;
67712;SDS011;67640;55.784;49.138;2023-05-10T06:21:11;5.20;;;1.20;;
67712;SDS011;67640;55.784;49.138;2023-05-10T06:26:30;3.12;;;1.10;;
67712;SDS011;67640;55.784;49.138;2023-05-10T06:31:49;6.47;;;0.80;;
67712;SDS011;67640;55.784;49.138;2023-05-10T06:36:55;10.40;;;1.00;;
67712;SDS011;67640;55.784;49.138;2023-05-10T06:42:00;11.75;;;1.05;;
67712;SDS011;67640;55.784;49.138;2023-05-10T06:52:27;4.73;;;0.90;;
67712;SDS011;67640;55.784;49.138;2023-05-10T06:57:32;7.85;;;1.25;;
67712;SDS011;67640;55.784;49.138;2023-05-10T07:02:38;5.57;;;1.53;;
67712;SDS011;67640;55.784;49.138;2023-05-10T07:07:57;22.10;;;15.45;;
67712;SDS011;67640;55.784;49.138;2023-05-10T07:13:16;7.95;;;1.37;;
67712;SDS011;67640;55.784;49.138;2023-05-10T07:18:35;3.97;;;0.60;;
67712;SDS011;67640;55.784;49.138;2023-05-10T07:24:00;3.33;;;1.00;;
67712;SDS011;67640;55.784;49.138;2023-05-10T07:29:06;6.93;;;1.60;;
67712;SDS011;67640;55.784;49.138;2023-05-10T07:34:11;4.08;;;1.10;;
67712;SDS011;67640;55.784;49.138;2023-05-10T07:45:08;3.67;;;0.90;;
67712;SDS011;67640;55.784;49.138;2023-05-10T07:50:13;14.73;;;2.97;;
67712;SDS011;67640;55.784;49.138;2023-05-10T07:55:19;4.50;;;1.55;;
67712;SDS011;67640;55.784;49.138;2023-05-10T08:00:38;18.87;;;1.77;;
67712;SDS011;67640;55.784;49.138;2023-05-10T08:05:57;25.15;;;5.08;;
67712;SDS011;67640;55.784;49.138;2023-05-10T08:11:16;12.45;;;3.70;;
67712;SDS011;67640;55.784;49.138;2023-05-10T08:16:22;8.87;;;2.63;;
67712;SDS011;67640;55.784;49.138;2023-05-10T08:21:27;9.33;;;1.10;;
67712;SDS011;67640;55.784;49.138;2023-05-10T08:26:33;5.03;;;0.70;;
67712;SDS011;67640;55.784;49.138;2023-05-10T08:31:39;4.95;;;1.20;;
67712;SDS011;67640;55.784;49.138;2023-05-10T08:36:44;11.20;;;1.65;;
67712;SDS011;67640;55.784;49.138;2023-05-10T08:42:03;6.40;;;2.07;;
67712;SDS011;67640;55.784;49.138;2023-05-10T08:47:09;6.30;;;1.07;;
67712;SDS011;67640;55.784;49.138;2023-05-10T08:52:14;6.97;;;1.30;;
67712;SDS011;67640;55.784;49.138;2023-05-10T08:57:20;4.28;;;0.70;;
67712;SDS011;67640;55.784;49.138;2023-05-10T09:02:26;12.98;;;1.40;;
67712;SDS011;67640;55.784;49.138;2023-05-10T09:07:36;4.13;;;1.10;;
67712;SDS011;67640;55.784;49.138;2023-05-10T09:12:42;7.85;;;1.37;;
67712;SDS011;67640;55.784;49.138;2023-05-10T09:18:02;7.90;;;1.00;;
67712;SDS011;67640;55.784;49.138;2023-05-10T09:23:07;5.00;;;0.93;;
67712;SDS011;67640;55.784;49.138;2023-05-10T09:28:12;6.90;;;1.22;;
67712;SDS011;67640;55.784;49.138;2023-05-10T09:33:17;50.00;;;8.07;;
67712;SDS011;67640;55.784;49.138;2023-05-10T09:38:23;4.78;;;1.85;;
67712;SDS011;67640;55.784;49.138;2023-05-10T09:43:29;4.47;;;1.10;;
67712;SDS011;67640;55.784;49.138;2023-05-10T09:48:49;3.83;;;0.70;;
67712;SDS011;67640;55.784;49.138;2023-05-10T09:59:19;1.53;;;0.60;;
67712;SDS011;67640;55.784;49.138;2023-05-10T10:04:25;2.45;;;0.70;;
67712;SDS011;67640;55.784;49.138;2023-05-10T10:09:32;3.37;;;1.20;;
67712;SDS011;67640;55.784;49.138;2023-05-10T10:14:51;13.73;;;2.60;;
67712;SDS011;67640;55.784;49.138;2023-05-10T10:20:11;7.90;;;1.40;;
67712;SDS011;67640;55.784;49.138;2023-05-10T10:25:16;9.93;;;1.27;;
67712;SDS011;67640;55.784;49.138;2023-05-10T10:35:49;4.00;;;1.20;;
67712;SDS011;67640;55.784;49.138;2023-05-10T10:46:34;5.62;;;1.10;;
67712;SDS011;67640;55.784;49.138;2023-05-10T10:57:19;2.77;;;0.93;;
67712;SDS011;67640;55.784;49.138;2023-05-10T11:19:21;10.70;;;1.35;;
67712;SDS011;67640;55.784;49.138;2023-05-10T11:24:27;30.87;;;3.57;;
67712;SDS011;67640;55.784;49.138;2023-05-10T11:29:32;28.90;;;1.90;;
67712;SDS011;67640;55.784;49.138;2023-05-10T11:34:38;9.38;;;1.90;;
67712;SDS011;67640;55.784;49.138;2023-05-10T11:39:45;6.25;;;1.50;;
67712;SDS011;67640;55.784;49.138;2023-05-10T11:45:05;14.13;;;1.12;;
67712;SDS011;67640;55.784;49.138;2023-05-10T11:50:10;7.92;;;1.40;;
67712;SDS011;67640;55.784;49.138;2023-05-10T11:55:31;4.17;;;1.00;;
67712;SDS011;67640;55.784;49.138;2023-05-10T12:00:50;2.17;;;0.78;;
67712;SDS011;67640;55.784;49.138;2023-05-10T12:06:09;20.73;;;2.87;;
67712;SDS011;67640;55.784;49.138;2023-05-10T12:11:28;7.62;;;1.02;;
67712;SDS011;67640;55.784;49.138;2023-05-10T12:16:33;4.12;;;1.07;;
67712;SDS011;67640;55.784;49.138;2023-05-10T12:21:39;4.17;;;1.00;;
67712;SDS011;67640;55.784;49.138;2023-05-10T12:32:04;4.90;;;1.37;;
67712;SDS011;67640;55.784;49.138;2023-05-10T12:37:09;10.87;;;1.03;;
67712;SDS011;67640;55.784;49.138;2023-05-10T12:42:15;5.25;;;1.00;;
67712;SDS011;67640;55.784;49.138;2023-05-10T12:47:35;3.05;;;0.70;;
67712;SDS011;67640;55.784;49.138;2023-05-10T12:52:54;2.47;;;0.90;;
67712;SDS011;67640;55.784;49.138;2023-05-10T12:58:13;3.52;;;0.80;;
67712;SDS011;67640;55.784;49.138;2023-05-10T13:03:19;10.93;;;1.30;;
67712;SDS011;67640;55.784;49.138;2023-05-10T13:08:25;3.80;;;1.00;;
67712;SDS011;67640;55.784;49.138;2023-05-10T13:13:31;13.08;;;1.75;;
67712;SDS011;67640;55.784;49.138;2023-05-10T13:18:36;5.83;;;1.10;;
67712;SDS011;67640;55.784;49.138;2023-05-10T13:23:51;3.33;;;0.70;;
67712;SDS011;67640;55.784;49.138;2023-05-10T13:29:10;4.00;;;0.80;;
67712;SDS011;67640;55.784;49.138;2023-05-10T13:34:16;7.80;;;0.90;;
67712;SDS011;67640;55.784;49.138;2023-05-10T13:39:23;2.87;;;0.70;;
67712;SDS011;67640;55.784;49.138;2023-05-10T13:44:29;2.43;;;0.73;;
67712;SDS011;67640;55.784;49.138;2023-05-10T13:49:34;3.83;;;0.90;;
67712;SDS011;67640;55.784;49.138;2023-05-10T13:54:39;6.07;;;0.77;;
67712;SDS011;67640;55.784;49.138;2023-05-10T13:59:54;6.22;;;1.15;;
67712;SDS011;67640;55.784;49.138;2023-05-10T14:05:13;6.00;;;0.95;;
67712;SDS011;67640;55.784;49.138;2023-05-10T14:10:19;4.87;;;0.90;;
67712;SDS011;67640;55.784;49.138;2023-05-10T14:15:25;4.35;;;0.80;;
67712;SDS011;67640;55.784;49.138;2023-05-10T14:20:31;2.93;;;0.80;;
67712;SDS011;67640;55.784;49.138;2023-05-10T14:25:37;3.08;;;0.70;;
67712;SDS011;67640;55.784;49.138;2023-05-10T14:30:42;14.63;;;2.25;;
67712;SDS011;67640;55.784;49.138;2023-05-10T14:36:01;5.23;;;1.00;;
67712;SDS011;67640;55.784;49.138;2023-05-10T14:41:07;6.80;;;1.25;;
67712;SDS011;67640;55.784;49.138;2023-05-10T14:46:13;10.97;;;1.47;;
67712;SDS011;67640;55.784;49.138;2023-05-10T14:51:18;4.53;;;1.22;;
67712;SDS011;67640;55.784;49.138;2023-05-10T14:56:23;29.42;;;2.10;;
67712;SDS011;67640;55.784;49.138;2023-05-10T15:01:28;4.67;;;0.70;;
67712;SDS011;67640;55.784;49.138;2023-05-10T15:06:47;6.17;;;1.80;;
67712;SDS011;67640;55.784;49.138;2023-05-10T15:11:53;3.47;;;0.80;;
67712;SDS011;67640;55.784;49.138;2023-05-10T15:16:58;3.42;;;0.90;;
67712;SDS011;67640;55.784;49.138;2023-05-10T15:22:04;3.55;;;0.93;;
67712;SDS011;67640;55.784;49.138;2023-05-10T15:27:10;8.00;;;1.00;;
67712;SDS011;67640;55.784;49.138;2023-05-10T15:32:24;7.62;;;1.67;;
67712;SDS011;67640;55.784;49.138;2023-05-10T15:37:43;8.33;;;3.97;;
67712;SDS011;67640;55.784;49.138;2023-05-10T15:42:48;12.65;;;2.65;;
67712;SDS011;67640;55.784;49.138;2023-05-10T15:47:54;11.25;;;2.02;;
67712;SDS011;67640;55.784;49.138;2023-05-10T15:53:00;11.33;;;2.70;;
67712;SDS011;67640;55.784;49.138;2023-05-10T15:58:05;18.60;;;2.62;;
67712;SDS011;67640;55.784;49.138;2023-05-10T16:03:15;3.13;;;1.03;;
67712;SDS011;67640;55.784;49.138;2023-05-10T16:08:20;6.60;;;1.30;;
67712;SDS011;67640;55.784;49.138;2023-05-10T16:13:39;7.53;;;1.82;;
67712;SDS011;67640;55.784;49.138;2023-05-10T16:18:44;7.57;;;2.00;;
67712;SDS011;67640;55.784;49.138;2023-05-10T16:23:49;10.18;;;1.92;;
67712;SDS011;67640;55.784;49.138;2023-05-10T16:28:54;16.43;;;2.90;;
67712;SDS011;67640;55.784;49.138;2023-05-10T16:34:00;33.28;;;5.67;;
67712;SDS011;67640;55.784;49.138;2023-05-10T16:39:32;26.85;;;5.95;;
67712;SDS011;67640;55.784;49.138;2023-05-10T16:44:37;24.67;;;6.50;;
67712;SDS011;67640;55.784;49.138;2023-05-10T16:49:56;24.40;;;5.55;;
67712;SDS011;67640;55.784;49.138;2023-05-10T16:55:15;20.20;;;5.83;;
67712;SDS011;67640;55.784;49.138;2023-05-10T17:00:35;43.27;;;12.47;;
67712;SDS011;67640;55.784;49.138;2023-05-10T17:05:54;39.10;;;8.78;;
67712;SDS011;67640;55.784;49.138;2023-05-10T17:16:24;33.02;;;5.58;;
67712;SDS011;67640;55.784;49.138;2023-05-10T17:21:30;29.67;;;5.87;;
67712;SDS011;67640;55.784;49.138;2023-05-10T17:26:50;19.77;;;5.37;;
67712;SDS011;67640;55.784;49.138;2023-05-10T17:32:09;23.70;;;5.35;;
67712;SDS011;67640;55.784;49.138;2023-05-10T17:37:15;29.20;;;6.60;;
67712;SDS011;67640;55.784;49.138;2023-05-10T17:42:20;22.67;;;5.58;;
67712;SDS011;67640;55.784;49.138;2023-05-10T17:47:26;24.10;;;5.58;;
67712;SDS011;67640;55.784;49.138;2023-05-10T17:52:40;26.83;;;5.90;;
67712;SDS011;67640;55.784;49.138;2023-05-10T17:57:59;29.40;;;7.33;;
67712;SDS011;67640;55.784;49.138;2023-05-10T18:03:18;23.07;;;6.27;;
67712;SDS011;67640;55.784;49.138;2023-05-10T18:08:24;29.37;;;6.55;;
67712;SDS011;67640;55.784;49.138;2023-05-10T18:13:30;27.62;;;6.15;;
67712;SDS011;67640;55.784;49.138;2023-05-10T18:18:36;24.87;;;6.10;;
67712;SDS011;67640;55.784;49.138;2023-05-10T18:23:55;24.37;;;6.35;;
67712;SDS011;67640;55.784;49.138;2023-05-10T18:29:14;25.30;;;5.70;;
67712;SDS011;67640;55.784;49.138;2023-05-10T18:34:33;21.75;;;5.15;;
67712;SDS011;67640;55.784;49.138;2023-05-10T18:39:39;28.17;;;5.90;;
67712;SDS011;67640;55.784;49.138;2023-05-10T18:44:45;29.60;;;5.70;;
67712;SDS011;67640;55.784;49.138;2023-05-10T18:49:51;29.05;;;5.42;;
67712;SDS011;67640;55.784;49.138;2023-05-10T18:54:57;37.30;;;6.53;;
67712;SDS011;67640;55.784;49.138;2023-05-10T19:00:16;24.25;;;6.12;;
67712;SDS011;67640;55.784;49.138;2023-05-10T19:05:22;24.05;;;6.10;;
67712;SDS011;67640;55.784;49.138;2023-05-10T19:10:28;15.33;;;5.27;;
67712;SDS011;67640;55.784;49.138;2023-05-10T19:15:34;25.08;;;4.90;;
67712;SDS011;67640;55.784;49.138;2023-05-10T19:20:39;26.37;;;5.53;;
67712;SDS011;67640;55.784;49.138;2023-05-10T19:25:58;24.90;;;5.70;;
67712;SDS011;67640;55.784;49.138;2023-05-10T19:31:04;24.72;;;5.33;;
67712;SDS011;67640;55.784;49.138;2023-05-10T19:36:10;31.30;;;6.77;;
67712;SDS011;67640;55.784;49.138;2023-05-10T19:41:16;24.02;;;6.50;;
67712;SDS011;67640;55.784;49.138;2023-05-10T19:46:22;19.83;;;6.60;;
67712;SDS011;67640;55.784;49.138;2023-05-10T19:51:41;24.32;;;6.65;;
67712;SDS011;67640;55.784;49.138;2023-05-10T19:56:46;22.07;;;7.45;;
67712;SDS011;67640;55.784;49.138;2023-05-10T20:01:52;19.67;;;5.70;;
67712;SDS011;67640;55.784;49.138;2023-05-10T20:07:11;22.23;;;5.60;;
67712;SDS011;67640;55.784;49.138;2023-05-10T20:12:16;15.43;;;5.47;;
67712;SDS011;67640;55.784;49.138;2023-05-10T20:17:22;19.60;;;5.30;;
67712;SDS011;67640;55.784;49.138;2023-05-10T20:28:01;17.55;;;5.90;;
67712;SDS011;67640;55.784;49.138;2023-05-10T20:33:23;14.00;;;5.40;;
67712;SDS011;67640;55.784;49.138;2023-05-10T20:38:28;18.73;;;5.53;;
67712;SDS011;67640;55.784;49.138;2023-05-10T20:43:33;19.42;;;6.40;;
67712;SDS011;67640;55.784;49.138;2023-05-10T20:48:38;13.87;;;5.67;;
67712;SDS011;67640;55.784;49.138;2023-05-10T20:53:44;15.28;;;5.20;;
67712;SDS011;67640;55.784;49.138;2023-05-10T20:59:03;14.33;;;4.93;;
67712;SDS011;67640;55.784;49.138;2023-05-10T21:04:08;18.50;;;4.80;;
67712;SDS011;67640;55.784;49.138;2023-05-10T21:09:27;15.43;;;5.20;;
67712;SDS011;67640;55.784;49.138;2023-05-10T21:14:33;15.80;;;4.40;;
67712;SDS011;67640;55.784;49.138;2023-05-10T21:19:37;14.35;;;4.78;;
67712;SDS011;67640;55.784;49.138;2023-05-10T21:24:57;16.40;;;4.90;;
67712;SDS011;67640;55.784;49.138;2023-05-10T21:30:02;17.65;;;4.45;;
67712;SDS011;67640;55.784;49.138;2023-05-10T21:35:22;15.28;;;4.17;;
67712;SDS011;67640;55.784;49.138;2023-05-10T21:40:27;10.20;;;3.80;;
67712;SDS011;67640;55.784;49.138;2023-05-10T21:45:33;15.45;;;3.90;;
67712;SDS011;67640;55.784;49.138;2023-05-10T21:50:52;9.73;;;4.03;;
67712;SDS011;67640;55.784;49.138;2023-05-10T21:55:58;13.65;;;3.85;;
67712;SDS011;67640;55.784;49.138;2023-05-10T22:01:03;11.43;;;3.52;;
67712;SDS011;67640;55.784;49.138;2023-05-10T22:06:08;12.03;;;3.57;;
67712;SDS011;67640;55.784;49.138;2023-05-10T22:11:14;10.55;;;3.70;;
67712;SDS011;67640;55.784;49.138;2023-05-10T22:16:34;12.33;;;3.43;;
67712;SDS011;67640;55.784;49.138;2023-05-10T22:21:53;9.00;;;3.25;;
67712;SDS011;67640;55.784;49.138;2023-05-10T22:26:58;8.48;;;3.22;;
67712;SDS011;67640;55.784;49.138;2023-05-10T22:32:03;10.23;;;3.10;;
67712;SDS011;67640;55.784;49.138;2023-05-10T22:37:10;8.80;;;2.98;;
67712;SDS011;67640;55.784;49.138;2023-05-10T22:42:16;5.63;;;2.30;;
67712;SDS011;67640;55.784;49.138;2023-05-10T22:47:35;7.67;;;2.92;;
67712;SDS011;67640;55.784;49.138;2023-05-10T22:52:40;6.50;;;2.77;;
67712;SDS011;67640;55.784;49.138;2023-05-10T22:57:45;8.03;;;2.83;;
67712;SDS011;67640;55.784;49.138;2023-05-10T23:02:51;6.33;;;2.37;;
67712;SDS011;67640;55.784;49.138;2023-05-10T23:08:10;6.67;;;2.63;;
67712;SDS011;67640;55.784;49.138;2023-05-10T23:13:29;7.33;;;2.17;;
67712;SDS011;67640;55.784;49.138;2023-05-10T23:18:34;7.37;;;2.33;;
67712;SDS011;67640;55.784;49.138;2023-05-10T23:23:39;6.07;;;2.30;;
67712;SDS011;67640;55.784;49.138;2023-05-10T23:28:45;6.65;;;2.52;;
67712;SDS011;67640;55.784;49.138;2023-05-10T23:34:04;7.97;;;2.37;;
67712;SDS011;67640;55.784;49.138;2023-05-10T23:39:23;5.53;;;2.27;;
67712;SDS011;67640;55.784;49.138;2023-05-10T23:44:28;6.05;;;2.30;;
67712;SDS011;67640;55.784;49.138;2023-05-10T23:49:33;6.20;;;2.80;;
67712;SDS011;67640;55.784;49.138;2023-05-10T23:54:39;6.47;;;2.17;;
67712;SDS011;67640;55.784;49.138;2023-05-10T23:59:44;7.90;;;2.77;;
